Time;durP1;ratioP1;P1;durP2;ratioP2;P2;SDS_P1;SDS_P2;PMS_P1;PMS_P2;Temp;Humidity;BMP_temperature;BMP_pressure;BME280_temperature;BME280_humidity;BME280_pressure;Samples;Min_cycle;Max_cycle;Signal;HPM_P1;HPM_P2
2021/01/14 00:02:00;;;;;;;9.57;3.90;;;;;;;-9.74;66.41;99208.44;5080893;28;20489;-62
2021/01/14 00:04:25;;;;;;;16.90;6.28;;;;;;;-9.79;66.33;99198.13;5077790;28;20032;-62
2021/01/14 00:06:52;;;;;;;10.90;3.22;;;;;;;-9.76;66.20;99198.09;5076863;28;20541;-64
2021/01/14 00:09:17;;;;;;;6.25;2.95;;;;;;;-9.72;66.01;99210.13;5077213;28;20036;-61
2021/01/14 00:11:46;;;;;;;12.57;4.15;;;;;;;-9.80;66.29;99186.88;5079869;28;20455;-60
2021/01/14 00:14:11;;;;;;;14.43;6.25;;;;;;;-9.87;66.84;99177.44;5079742;28;20075;-61
2021/01/14 00:16:37;;;;;;;8.27;3.65;;;;;;;-9.77;66.19;99190.31;5077182;28;20094;-62
2021/01/14 00:19:04;;;;;;;7.72;2.67;;;;;;;-10.33;65.98;99050.94;5082809;28;20039;-61
2021/01/14 00:21:29;;;;;;;9.10;4.13;;;;;;;-11.09;66.54;98951.53;5083163;28;20036;-62
2021/01/14 00:23:55;;;;;;;9.40;3.45;;;;;;;-9.96;66.76;99152.47;5073014;28;20122;-62
2021/01/14 00:26:20;;;;;;;15.63;5.45;;;;;;;-9.83;66.92;99165.34;5086532;28;20027;-62
2021/01/14 00:28:46;;;;;;;15.45;5.45;;;;;;;-9.78;67.07;99147.13;5075400;28;20028;-61
2021/01/14 00:31:11;;;;;;;10.15;3.47;;;;;;;-9.71;66.63;99134.13;5081343;28;20491;-59
2021/01/14 00:33:37;;;;;;;12.27;5.30;;;;;;;-9.77;66.91;99123.81;5082336;28;20542;-61
2021/01/14 00:36:02;;;;;;;15.68;6.35;;;;;;;-9.74;66.87;99118.63;5074398;28;20031;-62
2021/01/14 00:38:28;;;;;;;8.45;3.90;;;;;;;-9.66;66.70;99115.94;5086396;28;20144;-62
2021/01/14 00:40:53;;;;;;;7.80;3.15;;;;;;;-9.68;66.26;99131.50;5071404;28;20070;-62
2021/01/14 00:43:19;;;;;;;15.48;6.07;;;;;;;-9.84;67.23;99122.19;5069175;28;20091;-63
2021/01/14 00:45:47;;;;;;;11.43;3.72;;;;;;;-9.78;66.66;99111.75;5076091;28;20070;-60
2021/01/14 00:48:12;;;;;;;13.52;4.45;;;;;;;-9.80;66.88;99097.97;5057157;28;20029;-63
2021/01/14 00:50:38;;;;;;;10.88;4.28;;;;;;;-10.06;66.46;99055.03;5063300;28;20043;-61
2021/01/14 00:53:03;;;;;;;13.00;4.38;;;;;;;-9.88;66.15;99073.88;5082111;28;20162;-60
2021/01/14 00:55:29;;;;;;;6.03;2.55;;;;;;;-9.82;65.89;99099.72;5080671;28;20491;-63
2021/01/14 00:57:54;;;;;;;17.23;5.70;;;;;;;-10.10;66.31;99055.94;5075709;28;20039;-63
2021/01/14 01:00:22;;;;;;;9.13;3.03;;;;;;;-10.05;66.42;99051.56;5086265;28;20036;-62
2021/01/14 01:02:50;;;;;;;14.05;5.35;;;;;;;-9.95;66.20;99073.91;5074622;28;20042;-61
2021/01/14 01:05:17;;;;;;;14.25;5.13;;;;;;;-9.92;66.32;99083.38;5080667;28;20518;-62
2021/01/14 01:07:57;;;;;;;10.80;5.03;;;;;;;-10.06;66.48;99044.69;5083281;28;20047;-62
2021/01/14 01:10:24;;;;;;;16.05;4.75;;;;;;;-9.95;65.88;99078.25;5073265;28;20036;-60
2021/01/14 01:12:57;;;;;;;13.60;4.10;;;;;;;-9.95;65.66;99078.25;5084111;28;20496;-61
2021/01/14 01:15:23;;;;;;;14.20;4.95;;;;;;;-10.12;66.27;99065.44;5080427;28;20047;-57
2021/01/14 01:17:49;;;;;;;9.50;4.35;;;;;;;-10.07;66.16;99063.69;5076022;28;20110;-61
2021/01/14 01:20:14;;;;;;;15.55;5.00;;;;;;;-10.01;66.04;99093.81;5086002;28;20037;-62
2021/01/14 01:22:40;;;;;;;12.23;5.60;;;;;;;-10.13;65.85;99053.34;5073968;28;20051;-63
2021/01/14 01:25:06;;;;;;;17.15;5.82;;;;;;;-10.02;66.49;99074.84;5081943;28;20119;-61
2021/01/14 01:27:32;;;;;;;14.73;5.75;;;;;;;-10.26;67.19;99026.72;5081004;28;20068;-61
2021/01/14 01:29:57;;;;;;;15.95;5.88;;;;;;;-9.91;67.06;99094.59;5074630;28;20064;-63
2021/01/14 01:32:23;;;;;;;11.93;4.22;;;;;;;-9.88;66.58;99066.09;5086122;28;20122;-62
2021/01/14 01:34:49;;;;;;;14.60;5.85;;;;;;;-9.97;67.31;99062.69;5075143;28;20039;-63
2021/01/14 01:37:14;;;;;;;10.52;3.67;;;;;;;-9.98;67.00;99052.38;5080635;28;20044;-57
2021/01/14 01:39:39;;;;;;;9.23;3.92;;;;;;;-10.14;66.91;99005.03;5081839;28;20058;-61
2021/01/14 01:42:05;;;;;;;11.30;4.35;;;;;;;-9.92;66.86;99056.63;5073196;28;20044;-61
2021/01/14 01:44:31;;;;;;;6.95;2.50;;;;;;;-9.83;66.66;99061.72;5085998;28;20031;-60
2021/01/14 01:47:07;;;;;;;13.25;4.60;;;;;;;-10.01;66.31;99037.72;5076419;28;20119;-60
2021/01/14 01:49:35;;;;;;;13.07;5.68;;;;;;;-10.05;66.15;99046.38;5077650;28;20036;-62
2021/01/14 01:52:04;;;;;;;13.80;5.75;;;;;;;-9.99;66.16;99061.88;5083437;28;20035;-61
2021/01/14 01:54:34;;;;;;;14.70;5.35;;;;;;;-9.96;66.43;99055.81;5073203;28;20063;-61
2021/01/14 01:57:01;;;;;;;12.52;5.35;;;;;;;-9.99;66.49;99059.28;5082396;28;20036;-61
2021/01/14 01:59:29;;;;;;;11.93;5.50;;;;;;;-9.99;66.51;99055.84;5079552;28;20515;-60
2021/01/14 02:01:55;;;;;;;11.77;4.75;;;;;;;-10.01;66.48;99052.38;5074405;28;20392;-60
2021/01/14 02:04:20;;;;;;;11.82;4.65;;;;;;;-9.93;66.72;99047.13;5086270;28;20032;-62
2021/01/14 02:07:05;;;;;;;6.97;2.38;;;;;;;-9.89;64.81;99030.69;5074320;28;20466;-60
2021/01/14 02:09:35;;;;;;;17.88;5.63;;;;;;;-10.12;66.19;99016.25;5076057;28;20403;-59
2021/01/14 02:12:04;;;;;;;7.97;2.80;;;;;;;-10.10;66.55;98988.63;5084441;28;20510;-61
2021/01/14 02:14:32;;;;;;;11.70;4.47;;;;;;;-9.92;66.98;99031.59;5072011;28;20094;-61
2021/01/14 02:16:57;;;;;;;11.38;4.20;;;;;;;-9.86;66.22;99007.38;5086104;28;20498;-61
2021/01/14 02:19:46;;;;;;;12.82;4.65;;;;;;;-9.91;66.35;99011.72;5082330;28;20183;-60
2021/01/14 02:22:23;;;;;;;12.38;5.10;;;;;;;-9.96;65.86;98998.84;5076179;28;20387;-61
2021/01/14 02:25:05;;;;;;;12.73;5.13;;;;;;;-10.04;66.60;98993.72;5086997;28;20115;-62
2021/01/14 02:27:32;;;;;;;17.10;4.07;;;;;;;-9.96;65.11;98998.84;5083476;28;20084;-60
2021/01/14 02:29:59;;;;;;;21.73;6.50;;;;;;;-10.16;66.00;98996.44;5077412;28;20028;-62
2021/01/14 02:32:24;;;;;;;3.40;1.77;;;;;;;-10.15;66.98;98990.38;5088752;28;20368;-61
2021/01/14 02:34:50;;;;;;;6.70;2.53;;;;;;;-10.08;66.25;98981.69;5077883;28;20043;-60
2021/01/14 02:37:17;;;;;;;9.00;3.25;;;;;;;-10.34;65.48;98949.16;5083188;28;20143;-59
2021/01/14 02:39:42;;;;;;;4.65;2.15;;;;;;;-10.09;65.18;98998.94;5085263;28;20059;-61
2021/01/14 02:42:08;;;;;;;14.88;6.07;;;;;;;-10.30;65.87;98999.16;5075876;28;20052;-61
2021/01/14 02:44:34;;;;;;;16.83;5.13;;;;;;;-10.47;66.63;98965.69;5059438;28;20118;-61
2021/01/14 02:46:59;;;;;;;11.65;4.60;;;;;;;-10.13;66.05;98993.81;5085196;28;20055;-61
2021/01/14 02:49:27;;;;;;;14.40;5.03;;;;;;;-10.21;65.26;98995.63;5082457;28;20028;-61
2021/01/14 02:52:00;;;;;;;11.00;4.60;;;;;;;-10.39;65.36;98985.44;5077727;28;20527;-62
2021/01/14 02:54:26;;;;;;;17.15;6.32;;;;;;;-10.35;66.11;98980.22;5088992;28;20100;-62
2021/01/14 02:56:52;;;;;;;13.63;6.43;;;;;;;-10.35;66.70;98980.22;5077795;28;20032;-62
2021/01/14 02:59:18;;;;;;;12.07;4.47;;;;;;;-10.20;65.54;98980.09;5081806;28;20035;-60
2021/01/14 03:01:44;;;;;;;17.05;5.90;;;;;;;-10.33;66.06;98992.28;5085501;28;20085;-52
2021/01/14 03:04:09;;;;;;;13.70;5.65;;;;;;;-10.29;65.64;98996.56;5075402;28;20028;-60
2021/01/14 03:06:35;;;;;;;10.27;4.38;;;;;;;-10.34;66.27;99008.69;5088064;28;20089;-66
2021/01/14 03:09:01;;;;;;;6.57;3.35;;;;;;;-10.31;66.10;98993.13;5078912;28;20517;-62
2021/01/14 03:11:28;;;;;;;7.00;3.30;;;;;;;-10.30;66.10;98981.91;5081306;28;20033;-62
2021/01/14 03:13:54;;;;;;;17.45;5.47;;;;;;;-10.35;65.93;98988.00;5086230;28;20499;-61
2021/01/14 03:16:20;;;;;;;6.00;2.15;;;;;;;-10.31;65.85;98981.91;5074856;28;20070;-60
2021/01/14 03:18:48;;;;;;;11.32;4.13;;;;;;;-10.34;65.53;98994.88;5090464;28;20032;-58
2021/01/14 03:21:26;;;;;;;6.88;2.80;;;;;;;-10.39;65.36;98980.25;5083143;28;20116;-51
2021/01/14 03:23:52;;;;;;;15.90;5.15;;;;;;;-10.59;64.66;98964.06;5085466;28;20028;-65
2021/01/14 03:26:19;;;;;;;15.70;5.93;;;;;;;-10.75;65.79;98963.34;5074009;28;20029;-61
2021/01/14 03:28:46;;;;;;;17.77;6.30;;;;;;;-10.74;65.87;98963.31;5086498;28;20056;-60
2021/01/14 03:31:13;;;;;;;12.82;3.00;;;;;;;-10.62;66.54;98954.59;5080215;28;20036;-59
2021/01/14 03:33:40;;;;;;;7.70;3.53;;;;;;;-10.55;65.22;98958.00;5078648;28;20032;-60
2021/01/14 03:36:06;;;;;;;17.75;6.20;;;;;;;-10.69;65.76;98960.72;5087051;28;20058;-61
2021/01/14 03:38:33;;;;;;;17.70;6.40;;;;;;;-10.69;65.64;98952.94;5074092;28;20414;-60
2021/01/14 03:40:59;;;;;;;5.80;3.10;;;;;;;-10.83;64.63;98915.16;5084308;28;20052;-62
2021/01/14 03:43:24;;;;;;;7.20;2.97;;;;;;;-10.64;65.58;98948.59;5081576;28;20047;-60
2021/01/14 03:45:50;;;;;;;17.83;6.07;;;;;;;-10.79;66.22;98954.75;5076854;28;20040;-59
2021/01/14 03:48:15;;;;;;;10.85;3.72;;;;;;;-10.69;64.23;98946.06;5086103;28;20410;-59
2021/01/14 03:50:42;;;;;;;11.57;5.03;;;;;;;-10.85;65.02;98955.69;5075696;28;20028;-57
2021/01/14 03:53:07;;;;;;;15.02;5.82;;;;;;;-10.87;65.32;98954.81;5082516;28;20121;-60
2021/01/14 03:55:33;;;;;;;15.90;5.55;;;;;;;-10.90;66.16;98926.38;5082004;28;20143;-57
2021/01/14 03:57:58;;;;;;;18.63;5.53;;;;;;;-10.72;65.69;98950.38;5075436;28;20530;-61
2021/01/14 04:00:24;;;;;;;15.40;2.10;;;;;;;-11.27;65.43;98829.31;5088020;28;20127;-59
2021/01/14 04:02:49;;;;;;;14.30;4.68;;;;;;;-10.64;65.32;98943.41;5084774;28;20044;-61
2021/01/14 04:05:15;;;;;;;15.38;5.35;;;;;;;-10.93;65.00;98900.56;5079326;28;20032;-57
2021/01/14 04:07:42;;;;;;;12.98;5.22;;;;;;;-10.83;65.66;98938.41;5077940;28;20119;-59
2021/01/14 04:10:08;;;;;;;18.50;6.55;;;;;;;-10.80;65.91;98929.75;5086816;28;20410;-61
2021/01/14 04:12:33;;;;;;;9.65;2.40;;;;;;;-11.43;66.31;98796.75;5073731;28;20955;-58
2021/01/14 04:14:59;;;;;;;10.10;3.22;;;;;;;-10.58;63.31;98933.03;5083376;28;20547;-58
2021/01/14 04:17:27;;;;;;;10.48;4.28;;;;;;;-10.80;63.68;98916.00;5080887;28;20081;-53
2021/01/14 04:19:54;;;;;;;14.93;5.43;;;;;;;-11.08;64.26;98911.88;5089105;28;20471;-54
2021/01/14 04:22:19;;;;;;;10.60;3.95;;;;;;;-11.38;64.76;98851.81;5073080;28;20048;-60
2021/01/14 04:24:45;;;;;;;8.55;2.33;;;;;;;-10.85;65.51;98923.78;5085433;28;20036;-56
2021/01/14 04:27:11;;;;;;;11.70;4.97;;;;;;;-10.95;64.38;98915.22;5078901;28;20060;-57
2021/01/14 04:29:36;;;;;;;6.90;3.45;;;;;;;-10.90;65.36;98916.03;5077545;28;20060;-57
2021/01/14 04:32:02;;;;;;;15.25;5.18;;;;;;;-11.49;65.21;98796.78;5086419;28;20463;-58
2021/01/14 04:34:27;;;;;;;7.03;2.95;;;;;;;-10.84;64.54;98897.91;5073411;28;20055;-58
2021/01/14 04:36:58;;;;;;;10.43;3.42;;;;;;;-10.89;64.95;98915.16;5083320;28;20036;-57
2021/01/14 04:39:23;;;;;;;16.20;6.47;;;;;;;-10.85;65.34;98918.59;5079644;28;20059;-60
2021/01/14 04:41:55;;;;;;;9.77;3.97;;;;;;;-10.84;64.86;98908.25;5076068;28;20055;-60
2021/01/14 04:44:21;;;;;;;10.13;4.13;;;;;;;-10.87;65.50;98897.91;5084775;28;20462;-60
2021/01/14 04:46:49;;;;;;;12.20;4.72;;;;;;;-10.80;64.60;98897.88;5075270;28;20044;-61
2021/01/14 04:49:18;;;;;;;8.65;2.92;;;;;;;-10.81;65.41;98897.00;5081290;28;20028;-58
2021/01/14 04:51:45;;;;;;;12.70;4.07;;;;;;;-10.79;65.45;98890.09;5082771;28;20518;-58
2021/01/14 04:54:14;;;;;;;6.68;3.25;;;;;;;-10.73;63.00;98895.22;5072047;28;20063;-60
2021/01/14 04:56:40;;;;;;;14.85;4.32;;;;;;;-10.85;63.88;98887.56;5086018;28;20040;-56
2021/01/14 04:59:05;;;;;;;15.07;6.20;;;;;;;-10.97;65.06;98897.16;5077877;28;20036;-59
2021/01/14 05:01:41;;;;;;;14.88;6.07;;;;;;;-11.01;64.65;98886.84;5077855;28;20131;-62
2021/01/14 05:04:09;;;;;;;15.73;5.65;;;;;;;-11.04;65.17;98887.72;5085742;28;20035;-60
2021/01/14 05:06:38;;;;;;;11.65;2.97;;;;;;;-11.65;63.58;98759.88;5057057;28;20086;-62
2021/01/14 05:09:06;;;;;;;14.23;5.28;;;;;;;-11.18;64.83;98863.72;5081889;28;20032;-61
2021/01/14 05:11:55;;;;;;;15.63;6.50;;;;;;;-11.05;65.04;98911.00;5080489;28;20024;-61
2021/01/14 05:14:21;;;;;;;8.10;3.35;;;;;;;-10.97;63.36;98915.25;5071958;28;20044;-61
2021/01/14 05:16:50;;;;;;;11.63;4.68;;;;;;;-11.19;64.65;98875.78;5084761;28;20059;-60
2021/01/14 05:19:16;;;;;;;14.48;5.80;;;;;;;-11.79;65.42;98772.91;5078537;28;20111;-59
2021/01/14 05:21:43;;;;;;;11.90;4.80;;;;;;;-11.10;65.56;98875.69;5076407;28;20170;-61
2021/01/14 05:24:14;;;;;;;14.77;6.13;;;;;;;-11.02;65.71;98888.56;5086575;28;20117;-61
2021/01/14 05:26:43;;;;;;;14.00;6.43;;;;;;;-11.16;66.13;98847.31;5074658;28;20686;-59
2021/01/14 05:29:18;;;;;;;2.47;1.25;;;;;;;-10.74;64.52;98887.47;5081288;28;20075;-60
2021/01/14 05:31:44;;;;;;;14.38;4.13;;;;;;;-10.88;64.38;98872.09;5082500;28;20149;-60
2021/01/14 05:34:10;;;;;;;14.45;4.85;;;;;;;-11.41;63.66;98797.59;5073273;28;20062;-57
2021/01/14 05:37:03;;;;;;;12.07;4.82;;;;;;;-11.02;64.30;98874.78;5086310;28;20097;-61
2021/01/14 05:39:29;;;;;;;15.68;5.38;;;;;;;-11.12;64.63;98868.84;5079728;28;20576;-61
2021/01/14 05:41:55;;;;;;;18.95;6.05;;;;;;;-11.11;64.70;98862.81;5074719;28;20174;-59
2021/01/14 05:44:39;;;;;;;10.07;3.33;;;;;;;-11.33;64.82;98813.88;5085916;28;20055;-59
2021/01/14 05:47:24;;;;;;;12.23;5.00;;;;;;;-11.26;65.04;98822.44;5077550;28;20453;-61
2021/01/14 05:49:53;;;;;;;;;;;;;;;-10.94;64.97;98860.06;5077563;28;20040;-60
2021/01/14 05:52:22;;;;;;;10.43;3.53;;;;;;;-10.85;64.33;98853.94;5089604;28;19912;-55
2021/01/14 05:54:57;;;;;;;20.27;6.82;;;;;;;-10.96;65.07;98860.09;5077392;28;20024;-59
2021/01/14 05:57:29;;;;;;;15.93;6.47;;;;;;;-11.11;64.13;98819.69;5082460;28;20047;-62
2021/01/14 05:59:55;;;;;;;22.98;8.20;;;;;;;-11.06;65.41;98862.78;5087097;28;20039;-60
2021/01/14 06:02:31;;;;;;;17.33;5.55;;;;;;;-11.01;64.24;98866.16;5075940;28;20043;-61
2021/01/14 06:04:57;;;;;;;13.75;4.65;;;;;;;-11.16;64.01;98838.72;5086085;28;20176;-59
2021/01/14 06:07:37;;;;;;;17.90;5.72;;;;;;;-11.08;64.68;98849.00;5069758;28;20028;-68
2021/01/14 06:10:02;;;;;;;11.32;3.47;;;;;;;-10.98;65.26;98845.44;5085021;28;20032;-67
2021/01/14 06:12:29;;;;;;;15.85;5.60;;;;;;;-10.95;63.36;98848.00;5088325;28;20029;-67
2021/01/14 06:14:55;;;;;;;9.93;4.25;;;;;;;-11.00;63.76;98852.38;5079039;28;20123;-68
2021/01/14 06:17:33;;;;;;;21.48;7.28;;;;;;;-11.74;63.67;98740.16;5081227;28;20170;-66
2021/01/14 06:20:08;;;;;;;18.58;6.85;;;;;;;-11.22;65.06;98837.03;5087796;28;20487;-68
2021/01/14 06:22:37;;;;;;;20.02;7.35;;;;;;;-11.65;65.12;98731.47;5059221;28;20036;-68
2021/01/14 06:25:06;;;;;;;18.65;5.85;;;;;;;-11.18;64.22;98807.72;5084914;28;20029;-68
2021/01/14 06:27:32;;;;;;;16.08;5.28;;;;;;;-10.94;64.00;98857.47;5084129;28;20080;-69
2021/01/14 06:30:05;;;;;;;10.45;3.45;;;;;;;-10.96;63.49;98860.09;5077287;28;20422;-67
2021/01/14 06:32:34;;;;;;;12.50;5.15;;;;;;;-11.25;63.44;98822.41;5088337;28;20050;-68
2021/01/14 06:35:00;;;;;;;14.35;4.70;;;;;;;-10.96;64.17;98841.13;5079021;28;20040;-68
2021/01/14 06:37:27;;;;;;;14.63;5.80;;;;;;;-11.16;64.43;98829.22;5081213;28;20170;-63
2021/01/14 06:39:57;;;;;;;18.60;6.20;;;;;;;-10.98;65.05;98835.13;5086423;28;20044;-67
2021/01/14 06:42:28;;;;;;;17.65;7.40;;;;;;;-10.91;64.34;98833.34;5075437;28;20047;-68
2021/01/14 06:44:57;;;;;;;21.95;7.25;;;;;;;-10.85;64.47;98852.25;5086213;28;20443;-67
2021/01/14 06:47:33;;;;;;;17.27;4.47;;;;;;;-11.44;64.13;98746.78;5082144;28;20032;-69
2021/01/14 06:50:20;;;;;;;8.32;3.58;;;;;;;-10.77;62.89;98854.72;5076845;28;20031;-66
2021/01/14 06:53:12;;;;;;;7.22;2.67;;;;;;;-10.80;62.55;98851.34;5062542;28;20491;-69
2021/01/14 06:55:38;;;;;;;23.98;7.97;;;;;;;-11.13;63.73;98826.63;5079371;28;20040;-67
2021/01/14 06:58:14;;;;;;;18.30;6.88;;;;;;;-10.90;64.13;98847.97;5087793;28;20039;-70
2021/01/14 07:00:45;;;;;;;24.35;8.43;;;;;;;-10.83;64.54;98866.00;5059709;28;20503;-68
2021/01/14 07:03:14;;;;;;;22.70;7.60;;;;;;;-10.71;64.79;98866.75;5083725;28;20039;-67
2021/01/14 07:05:51;;;;;;;17.40;5.53;;;;;;;-10.62;63.60;98863.22;5084009;28;20507;-69
2021/01/14 07:08:33;;;;;;;17.13;6.07;;;;;;;-10.68;63.32;98861.53;5074890;28;20178;-69
2021/01/14 07:11:07;;;;;;;18.17;7.35;;;;;;;-10.80;63.33;98862.53;5085141;28;20128;-68
2021/01/14 07:13:36;;;;;;;13.25;4.38;;;;;;;-10.75;62.26;98858.16;5083349;28;20040;-67
2021/01/14 07:16:02;;;;;;;30.17;9.07;;;;;;;-10.90;63.59;98830.72;5075686;28;20123;-68
2021/01/14 07:18:33;;;;;;;14.65;6.10;;;;;;;-10.65;63.93;98853.75;5089440;28;20032;-70
2021/01/14 07:21:19;;;;;;;18.50;7.32;;;;;;;-10.74;64.65;98848.69;5085109;28;20032;-69
2021/01/14 07:23:53;;;;;;;19.60;6.47;;;;;;;-10.59;63.25;98845.94;5082501;28;20063;-65
2021/01/14 07:26:29;;;;;;;18.02;6.95;;;;;;;-10.61;63.76;98837.34;5072296;28;20083;-69
2021/01/14 07:28:55;;;;;;;13.20;4.10;;;;;;;-10.60;61.27;98826.13;5083562;28;20391;-67
2021/01/14 07:31:23;;;;;;;21.95;7.97;;;;;;;-10.82;62.25;98823.75;5064257;28;20059;-63
2021/01/14 07:33:49;;;;;;;19.70;8.35;;;;;;;-10.83;63.06;98845.31;5077662;28;20055;-62
2021/01/14 07:36:20;;;;;;;15.85;5.20;;;;;;;-10.70;63.43;98837.44;5076858;28;20033;-63
2021/01/14 07:38:47;;;;;;;14.10;5.10;;;;;;;-10.63;63.50;98827.88;5074677;28;20053;-65
2021/01/14 07:41:12;;;;;;;22.83;7.97;;;;;;;-10.60;64.06;98830.44;5069855;28;20048;-65
2021/01/14 07:43:38;;;;;;;11.13;4.07;;;;;;;-10.74;61.12;98815.06;5072980;28;20515;-61
2021/01/14 07:46:23;;;;;;;18.83;7.85;;;;;;;-10.64;63.47;98845.13;5069394;28;20120;-63
2021/01/14 07:48:50;;;;;;;;;;;;;;;-10.54;63.00;98845.88;5058512;28;20390;-61
2021/01/14 07:51:15;;;;;;;12.85;3.97;;;;;;;-10.57;62.38;98825.22;5073385;28;19918;-59
2021/01/14 07:53:41;;;;;;;22.50;7.78;;;;;;;-10.53;63.49;98839.81;5065683;28;20025;-60
2021/01/14 07:56:24;;;;;;;22.58;8.80;;;;;;;-10.64;63.61;98821.84;5062614;28;20028;-60
2021/01/14 07:58:54;;;;;;;21.25;8.23;;;;;;;-10.53;63.89;98822.59;5061267;28;20401;-64
2021/01/14 08:01:19;;;;;;;19.38;6.30;;;;;;;-10.34;64.77;98840.47;5064424;28;20097;-62
2021/01/14 08:03:45;;;;;;;26.05;9.50;;;;;;;-10.32;63.96;98819.72;5073830;28;20103;-61
2021/01/14 08:06:18;;;;;;;17.13;7.15;;;;;;;-10.17;64.74;98810.91;5075480;28;20435;-63
2021/01/14 08:09:05;;;;;;;23.60;9.20;;;;;;;-10.13;64.11;98835.88;5078831;28;20050;-62
2021/01/14 08:11:55;;;;;;;13.00;4.95;;;;;;;-9.98;64.20;98814.97;5065854;28;20036;-60
2021/01/14 08:14:21;;;;;;;21.58;9.57;;;;;;;-9.94;63.91;98831.34;5076522;28;20037;-61
2021/01/14 08:16:54;;;;;;;15.77;4.22;;;;;;;-9.85;62.67;98804.47;5074820;28;20036;-63
2021/01/14 08:19:34;;;;;;;20.52;7.78;;;;;;;-10.04;62.52;98799.53;5072010;28;20089;-64
2021/01/14 08:22:05;;;;;;;18.83;8.35;;;;;;;-10.00;64.24;98802.94;5070320;28;20439;-63
2021/01/14 08:24:39;;;;;;;10.75;4.10;;;;;;;-9.75;62.46;98797.41;5062829;28;20028;-64
2021/01/14 08:27:08;;;;;;;10.32;3.75;;;;;;;-9.77;63.33;98796.56;5051075;28;20428;-64
2021/01/14 08:29:39;;;;;;;14.55;5.63;;;;;;;-9.76;62.07;98821.63;5023550;28;20021;-61
2021/01/14 08:32:31;;;;;;;17.33;6.47;;;;;;;-9.90;62.24;98801.06;5029120;28;20449;-65
2021/01/14 08:35:00;;;;;;;15.27;5.05;;;;;;;-10.06;62.71;98816.81;5027578;28;20033;-66
2021/01/14 08:37:32;;;;;;;19.98;5.97;;;;;;;-10.14;62.66;98793.63;5029294;28;20037;-62
2021/01/14 08:39:59;;;;;;;29.15;9.48;;;;;;;-10.71;64.07;98694.34;5029705;28;20127;-62
2021/01/14 08:42:30;;;;;;;29.92;9.82;;;;;;;-9.98;64.87;98794.25;5027800;28;20057;-66
2021/01/14 08:45:01;;;;;;;5.43;2.92;;;;;;;-9.63;62.30;98798.97;5029435;28;20136;-66
2021/01/14 08:47:52;;;;;;;18.95;8.55;;;;;;;-9.78;63.29;98810.38;5029725;28;20041;-65
2021/01/14 08:50:19;;;;;;;23.02;8.48;;;;;;;-9.71;64.86;98807.69;5029271;28;20397;-64
2021/01/14 08:52:45;;;;;;;16.08;5.68;;;;;;;-9.80;65.31;98756.03;5029081;28;20451;-62
2021/01/14 08:55:14;;;;;;;21.67;8.80;;;;;;;-9.51;62.91;98827.28;5030175;28;20025;-71
2021/01/14 08:57:53;;;;;;;10.35;2.88;;;;;;;-9.39;63.43;98824.50;5026594;28;20041;-69
2021/01/14 09:00:19;;;;;;;22.73;8.77;;;;;;;-9.56;62.82;98810.94;5027550;28;20045;-71
2021/01/14 09:02:45;;;;;;;26.65;8.98;;;;;;;-9.64;63.70;98805.88;5029326;28;20034;-74
2021/01/14 09:05:14;;;;;;;23.40;8.73;;;;;;;-9.64;64.21;98818.81;5029936;28;20027;-76
2021/01/14 09:07:40;;;;;;;21.38;7.97;;;;;;;-9.57;63.55;98793.69;5029794;28;20037;-72
2021/01/14 09:10:11;;;;;;;18.73;7.32;;;;;;;-9.62;63.90;98785.13;5029365;28;20137;-72
2021/01/14 09:12:37;;;;;;;24.63;8.68;;;;;;;-9.70;64.06;98793.84;5024613;28;20112;-75
2021/01/14 09:15:04;;;;;;;27.20;8.98;;;;;;;-9.74;63.41;98774.06;5030937;28;20061;-78
2021/01/14 09:17:34;;;;;;;21.85;8.27;;;;;;;-9.64;63.51;98812.78;5029853;28;20033;-72
2021/01/14 09:19:59;;;;;;;10.30;4.07;;;;;;;-9.55;63.82;98802.28;5014520;28;20046;-65
2021/01/14 09:22:26;;;;;;;20.75;6.43;;;;;;;-9.47;62.91;98821.16;5022431;28;20038;-76
2021/01/14 09:24:51;;;;;;;17.77;7.60;;;;;;;-9.62;61.99;98817.06;5029630;28;20045;-68
2021/01/14 09:27:17;;;;;;;18.45;6.93;;;;;;;-9.67;63.18;98832.66;5033680;28;20034;-63
2021/01/14 09:29:42;;;;;;;22.00;7.15;;;;;;;-9.73;63.04;98819.81;5023484;28;20084;-73
2021/01/14 09:32:14;;;;;;;23.95;9.20;;;;;;;-9.78;64.20;98813.84;5025473;28;20037;-71
2021/01/14 09:34:40;;;;;;;21.67;8.05;;;;;;;-9.67;63.41;98804.16;5029223;28;20579;-70
2021/01/14 09:37:19;;;;;;;23.80;9.25;;;;;;;-9.76;63.16;98804.31;5033379;28;20117;-69
2021/01/14 09:39:47;;;;;;;24.25;8.13;;;;;;;-9.70;64.56;98818.91;5033079;28;20144;-66
2021/01/14 09:42:17;;;;;;;18.23;7.00;;;;;;;-9.62;62.40;98787.72;5032764;28;20072;-71
2021/01/14 09:44:45;;;;;;;20.92;7.68;;;;;;;-9.63;62.24;98791.19;5030638;28;20033;-74
2021/01/14 09:47:12;;;;;;;23.08;8.65;;;;;;;-9.84;63.70;98772.50;5033551;28;20101;-68
2021/01/14 09:49:39;;;;;;;13.38;4.55;;;;;;;-9.58;62.62;98791.97;5031570;28;20033;-69
2021/01/14 09:52:04;;;;;;;19.48;7.90;;;;;;;-9.63;63.15;98812.75;5032758;28;20076;-75
2021/01/14 09:54:30;;;;;;;23.50;7.72;;;;;;;-10.47;61.95;98678.50;5024754;28;20116;-71
2021/01/14 09:56:56;;;;;;;23.33;8.07;;;;;;;-9.77;61.35;98812.09;5030812;28;20112;-72
2021/01/14 09:59:26;;;;;;;16.73;7.50;;;;;;;-9.91;62.61;98788.97;5031201;28;20045;-72
2021/01/14 10:02:13;;;;;;;18.02;6.55;;;;;;;-9.75;63.93;98798.25;5032091;28;20488;-68
2021/01/14 10:04:52;;;;;;;8.95;3.47;;;;;;;-9.58;62.03;98787.63;5027827;28;20495;-69
2021/01/14 10:07:21;;;;;;;15.90;5.97;;;;;;;-9.66;63.26;98805.03;5032073;28;20112;-63
2021/01/14 10:09:49;;;;;;;21.95;8.25;;;;;;;-9.72;63.62;98790.44;5032271;28;20489;-66
2021/01/14 10:12:14;;;;;;;21.90;7.15;;;;;;;-9.82;62.58;98765.56;5020844;28;20033;-64
2021/01/14 10:14:41;;;;;;;8.80;3.83;;;;;;;-9.60;61.35;98798.91;5031171;28;20034;-75
2021/01/14 10:17:17;;;;;;;20.85;7.57;;;;;;;-9.75;61.43;98800.00;5031667;28;20117;-70
2021/01/14 10:19:58;;;;;;;16.73;6.78;;;;;;;-9.91;61.45;98773.44;5026520;28;20063;-74
2021/01/14 10:22:23;;;;;;;25.33;8.40;;;;;;;-10.03;61.51;98785.72;5031196;28;20401;-63
2021/01/14 10:24:49;;;;;;;10.88;3.40;;;;;;;-9.87;62.11;98775.13;5031799;28;20042;-73
2021/01/14 10:27:19;;;;;;;29.02;7.93;;;;;;;-10.01;61.87;98754.59;5032782;28;20396;-63
2021/01/14 10:29:46;;;;;;;22.05;8.07;;;;;;;-9.90;62.59;98770.84;5031958;28;20061;-61
2021/01/14 10:32:22;;;;;;;18.58;7.75;;;;;;;-9.86;63.38;98782.03;5031745;28;20493;-63
2021/01/14 10:34:55;;;;;;;23.15;7.60;;;;;;;-9.73;62.64;98775.78;5032048;28;20091;-69
2021/01/14 10:37:29;;;;;;;23.20;8.38;;;;;;;-10.25;63.23;98674.69;5030374;28;20021;-73
2021/01/14 10:40:00;;;;;;;18.73;7.95;;;;;;;-9.56;63.79;98774.66;5031825;28;20045;-68
2021/01/14 10:42:27;;;;;;;21.58;8.20;;;;;;;-9.39;64.63;98762.28;5031454;28;20041;-66
2021/01/14 10:45:06;;;;;;;25.02;8.88;;;;;;;-10.17;64.26;98632.28;5031700;28;20493;-71
2021/01/14 10:47:33;;;;;;;18.17;7.97;;;;;;;-9.19;64.59;98776.63;5030916;28;20052;-72
2021/01/14 10:49:58;;;;;;;19.13;7.80;;;;;;;-9.09;64.72;98775.59;5031372;28;20139;-61
2021/01/14 10:52:24;;;;;;;25.17;8.70;;;;;;;-9.03;64.28;98764.28;5031609;28;20147;-69
2021/01/14 10:55:00;;;;;;;24.02;10.23;;;;;;;-8.99;64.03;98781.50;5029159;28;20121;-69
2021/01/14 10:57:53;;;;;;;20.38;8.10;;;;;;;-8.94;64.30;98774.47;5019159;28;20038;-69
2021/01/14 11:00:23;;;;;;;21.70;8.95;;;;;;;-9.42;62.11;98720.84;5023977;28;20033;-67
2021/01/14 11:03:09;;;;;;;21.90;8.55;;;;;;;-9.29;63.86;98756.94;5031028;28;20060;-74
2021/01/14 11:05:55;;;;;;;21.30;9.45;;;;;;;-9.09;64.16;98791.16;5031455;28;20116;-77
2021/01/14 11:08:30;;;;;;;;;;;;;;;-8.89;64.21;98758.84;5026608;28;20092;-72
2021/01/14 11:11:07;;;;;;;19.63;7.45;;;;;;;-8.90;62.74;98758.84;5024280;28;20303;-77
2021/01/14 11:13:42;;;;;;;24.08;8.85;;;;;;;-8.99;64.09;98770.25;5025298;28;20038;-69
2021/01/14 11:16:10;;;;;;;19.30;7.70;;;;;;;-9.09;64.15;98765.22;5022162;28;20505;-65
2021/01/14 11:18:37;;;;;;;18.75;8.60;;;;;;;-9.05;64.41;98771.19;5019546;28;20480;-69
2021/01/14 11:21:03;;;;;;;19.30;7.53;;;;;;;-9.03;64.82;98772.06;5019214;28;20037;-70
2021/01/14 11:23:29;;;;;;;19.85;8.40;;;;;;;-8.99;64.77;98759.88;5021630;28;20410;-74
2021/01/14 11:25:54;;;;;;;19.98;8.23;;;;;;;-8.92;65.02;98779.66;5019215;28;20025;-68
2021/01/14 11:28:20;;;;;;;17.77;7.93;;;;;;;-9.10;64.85;98732.41;5028375;28;20557;-73
2021/01/14 11:30:45;;;;;;;21.77;8.18;;;;;;;-9.07;64.45;98743.59;5030031;28;20021;-68
2021/01/14 11:33:10;;;;;;;19.38;7.53;;;;;;;-9.03;64.46;98766.88;5030828;28;20033;-69